Maxwell, IA (50161)

12:36 AM CDT on April 01, 2015 (GMT -0500)
Tranquility Base | | Change Station
CLOSE
Current Station
Personal Weather Station
Location: Maxwell, IA
Elevation: 902 ft
Nearby Weather Stations
Active Advisory: Fire Weather Watch

Elev 902 ft 41.89 °N, 93.40 °W | Updated 11 minutes ago

Clear
Clear
46.6 °F
Feels Like 47 °F
N
1.7
Wind Variable Wind from North

Today
High -- | Low -- °F
--% Chance of Precip.
Yesterday
High -- | Low -- °F
Precip. -- in
6:56 AM 7:38 PM
Waxing Gibbous, 91% visible
Pressure 29.89 in
Visibility 6.0 miles
Clouds Clear
Windchill 47 °F
Dew Point 36 °F
Humidity 67%
Rainfall 0.00 in
Snow Depth Not available.
UV 0 out of 12
Pollen 8.70 out of 12
Air Quality Not available.
Flu Activity Not available.
METAR KAMW 010453Z AUTO 16007KT 6SM HZ CLR 09/01 A2990 RMK AO2 SLP120 T00940006

More Conditions Fewer Conditions

Pressure 29.89 in
Visibility 6.0 miles
Clouds Clear
Windchill 47 °F
Dew Point 36 °F
Humidity 67%
Rainfall 0.00 in
Snow Depth Not available.
UV 0 out of 12
Pollen 8.70 out of 12
Air Quality Not available.
Flu Activity Not available.
METAR KAMW 010453Z AUTO 16007KT 6SM HZ CLR 09/01 A2990 RMK AO2 SLP120 T00940006

More Conditions Fewer Conditions

10-Day Weather Forecast

Almanac

Astronomy

Apr. 01, 2015 Rise Set
Actual Time
Civil Twilight
Nautical Twilight
Astronomical Twilight
Moon
Length of Visible Light
Length of Day
Tomorrow will be .
, % of the Moon is Illuminated

Today's Extremes

State Highs State Lows

Community

WunderPhotos

Upload Photos

1,809,919 photos uploaded!

WunderBlogs® & News

Nearby

Air Quality

  Air Quality AQ Index Pollutant
Not available.

Snow Depth

Station Depth Elevation

Earthquake Activity

City Distance Mag. Time & Date
Minimum magnitude displayed is 2.5.

Coastal Water Temperatures

Place Temperature

Stations

Nearby Weather Stations

Station Location Temp. Windchill Dew Point Humidity Wind Precip. Elev Updated Type
                   
Fire Weather Watch
Statement as of 8:29 PM CDT on March 31, 2015

... Fire Weather Watch remains in effect from Wednesday morning
through Wednesday evening for extreme fire conditions... .

* timing... winds will increase steadily after sunrise
Wednesday... with the most dangerous conditions persisting
through the afternoon.

* Wind... south increasing to 25 to 30 mph with gusts to near 40
mph at times.

* Relative humidity... as low as 28 percent.

* Fuel... grasses remain nearly 100 percent cured and surface
fuels are highly combustible.

* Impacts... any fires will spread very rapidly and be very
difficult to control in these dangerous conditions. Outdoor
burning is highly discouraged and should be avoided.

Precautionary/preparedness actions...

A Fire Weather Watch means that critical fire weather conditions
are forecast to occur. Listen for later forecasts and possible
red flag warnings.



Mjb